sensor_id;sensor_type;location;lat;lon;timestamp;P1;durP1;ratioP1;P2;durP2;ratioP2
48588;SDS011;34369;51.174;6.738;2023-01-13T00:02:23;28.93;;;27.13;;
48588;SDS011;34369;51.174;6.738;2023-01-13T00:04:58;28.27;;;26.47;;
48588;SDS011;34369;51.174;6.738;2023-01-13T00:07:34;29.30;;;27.50;;
48588;SDS011;34369;51.174;6.738;2023-01-13T00:10:09;29.80;;;27.90;;
48588;SDS011;34369;51.174;6.738;2023-01-13T00:12:42;27.63;;;25.93;;
48588;SDS011;34369;51.174;6.738;2023-01-13T00:15:16;28.37;;;26.57;;
48588;SDS011;34369;51.174;6.738;2023-01-13T00:17:50;27.67;;;25.88;;
48588;SDS011;34369;51.174;6.738;2023-01-13T00:20:22;27.77;;;26.08;;
48588;SDS011;34369;51.174;6.738;2023-01-13T00:22:55;29.27;;;27.37;;
48588;SDS011;34369;51.174;6.738;2023-01-13T00:25:30;28.73;;;26.93;;
48588;SDS011;34369;51.174;6.738;2023-01-13T00:28:03;28.47;;;26.67;;
48588;SDS011;34369;51.174;6.738;2023-01-13T00:30:40;27.80;;;26.00;;
48588;SDS011;34369;51.174;6.738;2023-01-13T00:33:18;29.23;;;27.40;;
48588;SDS011;34369;51.174;6.738;2023-01-13T00:35:55;28.10;;;26.30;;
48588;SDS011;34369;51.174;6.738;2023-01-13T00:38:30;27.10;;;25.30;;
48588;SDS011;34369;51.174;6.738;2023-01-13T00:41:06;29.60;;;27.70;;
48588;SDS011;34369;51.174;6.738;2023-01-13T00:43:41;27.83;;;26.05;;
48588;SDS011;34369;51.174;6.738;2023-01-13T00:46:14;28.90;;;27.00;;
48588;SDS011;34369;51.174;6.738;2023-01-13T00:48:50;28.40;;;26.50;;
48588;SDS011;34369;51.174;6.738;2023-01-13T00:51:24;27.63;;;25.73;;
48588;SDS011;34369;51.174;6.738;2023-01-13T00:53:57;28.40;;;26.57;;
48588;SDS011;34369;51.174;6.738;2023-01-13T00:56:29;28.67;;;26.67;;
48588;SDS011;34369;51.174;6.738;2023-01-13T00:59:01;27.80;;;25.80;;
48588;SDS011;34369;51.174;6.738;2023-01-13T01:01:34;29.00;;;27.00;;
48588;SDS011;34369;51.174;6.738;2023-01-13T01:04:10;28.23;;;26.37;;
48588;SDS011;34369;51.174;6.738;2023-01-13T01:06:43;28.83;;;26.92;;
48588;SDS011;34369;51.174;6.738;2023-01-13T01:09:17;29.63;;;27.73;;
48588;SDS011;34369;51.174;6.738;2023-01-13T01:11:51;30.00;;;28.10;;
48588;SDS011;34369;51.174;6.738;2023-01-13T01:14:23;29.00;;;27.02;;
48588;SDS011;34369;51.174;6.738;2023-01-13T01:16:56;29.53;;;27.50;;
48588;SDS011;34369;51.174;6.738;2023-01-13T01:19:31;29.10;;;27.20;;
48588;SDS011;34369;51.174;6.738;2023-01-13T01:22:07;28.83;;;26.73;;
48588;SDS011;34369;51.174;6.738;2023-01-13T01:24:39;29.43;;;27.37;;
48588;SDS011;34369;51.174;6.738;2023-01-13T01:27:13;29.23;;;27.25;;
48588;SDS011;34369;51.174;6.738;2023-01-13T01:29:45;28.43;;;26.43;;
48588;SDS011;34369;51.174;6.738;2023-01-13T01:32:18;29.23;;;27.13;;
48588;SDS011;34369;51.174;6.738;2023-01-13T01:34:52;29.37;;;27.23;;
48588;SDS011;34369;51.174;6.738;2023-01-13T01:37:24;28.35;;;26.25;;
48588;SDS011;34369;51.174;6.738;2023-01-13T01:39:57;31.53;;;28.90;;
48588;SDS011;34369;51.174;6.738;2023-01-13T01:42:30;29.77;;;27.77;;
48588;SDS011;34369;51.174;6.738;2023-01-13T01:45:21;29.93;;;27.93;;
48588;SDS011;34369;51.174;6.738;2023-01-13T01:47:58;30.40;;;28.40;;
48588;SDS011;34369;51.174;6.738;2023-01-13T01:50:36;29.63;;;27.63;;
48588;SDS011;34369;51.174;6.738;2023-01-13T01:53:10;29.57;;;27.60;;
48588;SDS011;34369;51.174;6.738;2023-01-13T01:55:48;29.33;;;27.43;;
48588;SDS011;34369;51.174;6.738;2023-01-13T01:58:23;29.97;;;27.97;;
48588;SDS011;34369;51.174;6.738;2023-01-13T02:01:00;29.33;;;27.23;;
48588;SDS011;34369;51.174;6.738;2023-01-13T02:03:33;29.43;;;27.43;;
48588;SDS011;34369;51.174;6.738;2023-01-13T02:06:15;30.17;;;28.17;;
48588;SDS011;34369;51.174;6.738;2023-01-13T02:08:49;31.20;;;28.90;;
48588;SDS011;34369;51.174;6.738;2023-01-13T02:11:27;29.13;;;27.20;;
48588;SDS011;34369;51.174;6.738;2023-01-13T02:14:20;30.33;;;28.13;;
48588;SDS011;34369;51.174;6.738;2023-01-13T02:17:04;29.80;;;27.87;;
48588;SDS011;34369;51.174;6.738;2023-01-13T02:23:16;32.87;;;30.10;;
48588;SDS011;34369;51.174;6.738;2023-01-13T02:30:40;30.27;;;28.30;;
48588;SDS011;34369;51.174;6.738;2023-01-13T02:33:34;30.80;;;28.80;;
48588;SDS011;34369;51.174;6.738;2023-01-13T02:36:22;31.60;;;29.50;;
48588;SDS011;34369;51.174;6.738;2023-01-13T02:39:09;31.40;;;29.40;;
48588;SDS011;34369;51.174;6.738;2023-01-13T02:41:49;31.20;;;29.20;;
48588;SDS011;34369;51.174;6.738;2023-01-13T02:44:46;29.00;;;27.03;;
48588;SDS011;34369;51.174;6.738;2023-01-13T02:47:24;32.00;;;29.83;;
48588;SDS011;34369;51.174;6.738;2023-01-13T02:49:59;31.08;;;28.83;;
48588;SDS011;34369;51.174;6.738;2023-01-13T02:52:35;31.40;;;29.10;;
48588;SDS011;34369;51.174;6.738;2023-01-13T02:55:12;30.42;;;28.13;;
48588;SDS011;34369;51.174;6.738;2023-01-13T02:57:48;31.20;;;29.20;;
48588;SDS011;34369;51.174;6.738;2023-01-13T03:00:23;32.90;;;30.70;;
48588;SDS011;34369;51.174;6.738;2023-01-13T03:02:58;30.07;;;27.87;;
48588;SDS011;34369;51.174;6.738;2023-01-13T03:05:30;31.77;;;29.50;;
48588;SDS011;34369;51.174;6.738;2023-01-13T03:08:09;31.60;;;29.40;;
48588;SDS011;34369;51.174;6.738;2023-01-13T03:11:01;31.23;;;29.10;;
48588;SDS011;34369;51.174;6.738;2023-01-13T03:13:51;31.03;;;28.83;;
48588;SDS011;34369;51.174;6.738;2023-01-13T03:16:37;31.30;;;28.87;;
48588;SDS011;34369;51.174;6.738;2023-01-13T03:19:29;31.97;;;29.43;;
48588;SDS011;34369;51.174;6.738;2023-01-13T03:22:17;32.07;;;29.77;;
48588;SDS011;34369;51.174;6.738;2023-01-13T03:24:59;33.10;;;30.93;;
48588;SDS011;34369;51.174;6.738;2023-01-13T03:27:49;32.63;;;30.33;;
48588;SDS011;34369;51.174;6.738;2023-01-13T03:30:28;30.93;;;28.63;;
48588;SDS011;34369;51.174;6.738;2023-01-13T03:33:05;31.90;;;29.37;;
48588;SDS011;34369;51.174;6.738;2023-01-13T03:35:44;33.80;;;31.00;;
48588;SDS011;34369;51.174;6.738;2023-01-13T03:38:20;32.70;;;30.40;;
48588;SDS011;34369;51.174;6.738;2023-01-13T03:41:00;32.47;;;30.27;;
48588;SDS011;34369;51.174;6.738;2023-01-13T03:43:39;30.40;;;28.20;;
48588;SDS011;34369;51.174;6.738;2023-01-13T03:46:37;32.70;;;30.07;;
48588;SDS011;34369;51.174;6.738;2023-01-13T03:49:19;32.40;;;30.20;;
48588;SDS011;34369;51.174;6.738;2023-01-13T03:51:57;33.47;;;30.93;;
48588;SDS011;34369;51.174;6.738;2023-01-13T03:54:43;32.80;;;30.27;;
48588;SDS011;34369;51.174;6.738;2023-01-13T03:57:22;33.40;;;30.83;;
48588;SDS011;34369;51.174;6.738;2023-01-13T03:59:59;31.50;;;29.30;;
48588;SDS011;34369;51.174;6.738;2023-01-13T04:05:15;33.37;;;30.50;;
48588;SDS011;34369;51.174;6.738;2023-01-13T04:07:51;32.33;;;29.87;;
48588;SDS011;34369;51.174;6.738;2023-01-13T04:10:33;32.47;;;29.83;;
48588;SDS011;34369;51.174;6.738;2023-01-13T04:13:22;33.20;;;30.47;;
48588;SDS011;34369;51.174;6.738;2023-01-13T04:16:01;33.43;;;30.83;;
48588;SDS011;34369;51.174;6.738;2023-01-13T04:18:38;32.53;;;30.13;;
48588;SDS011;34369;51.174;6.738;2023-01-13T04:21:13;34.00;;;31.50;;
48588;SDS011;34369;51.174;6.738;2023-01-13T04:23:46;31.10;;;28.60;;
48588;SDS011;34369;51.174;6.738;2023-01-13T04:26:20;34.53;;;31.83;;
48588;SDS011;34369;51.174;6.738;2023-01-13T04:28:54;32.47;;;29.87;;
48588;SDS011;34369;51.174;6.738;2023-01-13T04:31:27;33.50;;;30.83;;
48588;SDS011;34369;51.174;6.738;2023-01-13T04:33:59;31.97;;;29.23;;
48588;SDS011;34369;51.174;6.738;2023-01-13T04:36:32;32.10;;;29.70;;
48588;SDS011;34369;51.174;6.738;2023-01-13T04:39:06;33.97;;;30.87;;
48588;SDS011;34369;51.174;6.738;2023-01-13T04:41:38;33.03;;;30.70;;
48588;SDS011;34369;51.174;6.738;2023-01-13T04:44:28;33.20;;;30.70;;
48588;SDS011;34369;51.174;6.738;2023-01-13T04:47:04;33.40;;;30.30;;
48588;SDS011;34369;51.174;6.738;2023-01-13T04:49:38;32.83;;;30.27;;
48588;SDS011;34369;51.174;6.738;2023-01-13T04:52:10;34.20;;;31.20;;
48588;SDS011;34369;51.174;6.738;2023-01-13T04:54:55;32.27;;;29.90;;
48588;SDS011;34369;51.174;6.738;2023-01-13T04:57:53;32.57;;;30.07;;
48588;SDS011;34369;51.174;6.738;2023-01-13T05:00:32;31.93;;;29.50;;
48588;SDS011;34369;51.174;6.738;2023-01-13T05:03:07;33.80;;;31.20;;
48588;SDS011;34369;51.174;6.738;2023-01-13T05:05:39;33.93;;;31.17;;
48588;SDS011;34369;51.174;6.738;2023-01-13T05:08:12;32.60;;;29.83;;
48588;SDS011;34369;51.174;6.738;2023-01-13T05:10:46;33.40;;;30.73;;
48588;SDS011;34369;51.174;6.738;2023-01-13T05:13:19;33.00;;;30.10;;
48588;SDS011;34369;51.174;6.738;2023-01-13T05:16:09;31.97;;;29.43;;
48588;SDS011;34369;51.174;6.738;2023-01-13T05:18:59;33.63;;;30.87;;
48588;SDS011;34369;51.174;6.738;2023-01-13T05:21:32;32.67;;;30.17;;
48588;SDS011;34369;51.174;6.738;2023-01-13T05:24:21;31.53;;;29.07;;
48588;SDS011;34369;51.174;6.738;2023-01-13T05:27:12;33.57;;;30.90;;
48588;SDS011;34369;51.174;6.738;2023-01-13T05:29:47;32.63;;;29.92;;
48588;SDS011;34369;51.174;6.738;2023-01-13T05:32:20;32.97;;;29.80;;
48588;SDS011;34369;51.174;6.738;2023-01-13T05:34:53;33.63;;;30.77;;
48588;SDS011;34369;51.174;6.738;2023-01-13T05:37:26;33.13;;;29.90;;
48588;SDS011;34369;51.174;6.738;2023-01-13T05:39:59;33.67;;;30.93;;
48588;SDS011;34369;51.174;6.738;2023-01-13T05:45:51;34.50;;;31.40;;
48588;SDS011;34369;51.174;6.738;2023-01-13T05:48:28;34.60;;;31.77;;
48588;SDS011;34369;51.174;6.738;2023-01-13T05:51:04;32.60;;;30.07;;
48588;SDS011;34369;51.174;6.738;2023-01-13T05:53:39;32.83;;;30.33;;
48588;SDS011;34369;51.174;6.738;2023-01-13T05:56:12;33.50;;;30.93;;
48588;SDS011;34369;51.174;6.738;2023-01-13T05:58:48;33.20;;;30.40;;
48588;SDS011;34369;51.174;6.738;2023-01-13T06:01:21;34.90;;;31.73;;
48588;SDS011;34369;51.174;6.738;2023-01-13T06:03:53;32.50;;;30.17;;
48588;SDS011;34369;51.174;6.738;2023-01-13T06:06:26;33.03;;;30.60;;
48588;SDS011;34369;51.174;6.738;2023-01-13T06:08:59;31.73;;;29.23;;
48588;SDS011;34369;51.174;6.738;2023-01-13T06:11:31;33.33;;;30.73;;
48588;SDS011;34369;51.174;6.738;2023-01-13T06:14:07;33.80;;;30.97;;
48588;SDS011;34369;51.174;6.738;2023-01-13T06:16:39;33.80;;;31.30;;
48588;SDS011;34369;51.174;6.738;2023-01-13T06:19:12;33.47;;;30.97;;
48588;SDS011;34369;51.174;6.738;2023-01-13T06:21:44;34.50;;;31.90;;
48588;SDS011;34369;51.174;6.738;2023-01-13T06:24:18;33.70;;;31.20;;
48588;SDS011;34369;51.174;6.738;2023-01-13T06:26:51;33.87;;;31.10;;
48588;SDS011;34369;51.174;6.738;2023-01-13T06:29:24;33.63;;;31.23;;
48588;SDS011;34369;51.174;6.738;2023-01-13T06:31:57;32.67;;;29.93;;
48588;SDS011;34369;51.174;6.738;2023-01-13T06:34:33;33.87;;;30.97;;
48588;SDS011;34369;51.174;6.738;2023-01-13T06:37:06;34.00;;;31.50;;
48588;SDS011;34369;51.174;6.738;2023-01-13T06:39:38;34.30;;;31.43;;
48588;SDS011;34369;51.174;6.738;2023-01-13T06:42:12;35.93;;;33.47;;
48588;SDS011;34369;51.174;6.738;2023-01-13T06:45:07;33.67;;;31.27;;
48588;SDS011;34369;51.174;6.738;2023-01-13T06:47:41;33.40;;;30.80;;
48588;SDS011;34369;51.174;6.738;2023-01-13T06:50:16;32.13;;;29.60;;
48588;SDS011;34369;51.174;6.738;2023-01-13T06:52:51;32.03;;;29.83;;
48588;SDS011;34369;51.174;6.738;2023-01-13T06:55:23;35.00;;;32.40;;
48588;SDS011;34369;51.174;6.738;2023-01-13T06:57:56;33.93;;;31.50;;
48588;SDS011;34369;51.174;6.738;2023-01-13T07:00:31;33.97;;;31.40;;
48588;SDS011;34369;51.174;6.738;2023-01-13T07:03:05;33.40;;;30.97;;
48588;SDS011;34369;51.174;6.738;2023-01-13T07:05:41;33.43;;;30.73;;
48588;SDS011;34369;51.174;6.738;2023-01-13T07:08:23;33.20;;;30.80;;
48588;SDS011;34369;51.174;6.738;2023-01-13T07:10:59;33.13;;;30.50;;
48588;SDS011;34369;51.174;6.738;2023-01-13T07:13:40;33.63;;;31.33;;
48588;SDS011;34369;51.174;6.738;2023-01-13T07:16:35;34.50;;;32.00;;
48588;SDS011;34369;51.174;6.738;2023-01-13T07:19:10;32.17;;;30.03;;
48588;SDS011;34369;51.174;6.738;2023-01-13T07:21:52;34.10;;;31.50;;
48588;SDS011;34369;51.174;6.738;2023-01-13T07:24:26;34.43;;;31.73;;
48588;SDS011;34369;51.174;6.738;2023-01-13T07:27:04;33.90;;;31.07;;
48588;SDS011;34369;51.174;6.738;2023-01-13T07:29:44;32.97;;;30.73;;
48588;SDS011;34369;51.174;6.738;2023-01-13T07:32:19;34.90;;;32.27;;
48588;SDS011;34369;51.174;6.738;2023-01-13T07:34:56;32.57;;;30.07;;
48588;SDS011;34369;51.174;6.738;2023-01-13T07:37:35;33.53;;;30.93;;
48588;SDS011;34369;51.174;6.738;2023-01-13T07:40:12;33.53;;;30.57;;
48588;SDS011;34369;51.174;6.738;2023-01-13T07:42:48;33.17;;;30.33;;
48588;SDS011;34369;51.174;6.738;2023-01-13T07:45:39;32.87;;;30.37;;
48588;SDS011;34369;51.174;6.738;2023-01-13T07:48:18;33.63;;;30.93;;
48588;SDS011;34369;51.174;6.738;2023-01-13T07:50:52;32.03;;;29.33;;
48588;SDS011;34369;51.174;6.738;2023-01-13T07:53:27;33.95;;;31.42;;
48588;SDS011;34369;51.174;6.738;2023-01-13T07:56:03;33.20;;;30.90;;
48588;SDS011;34369;51.174;6.738;2023-01-13T07:58:41;34.45;;;32.05;;
48588;SDS011;34369;51.174;6.738;2023-01-13T08:01:19;32.43;;;30.30;;
48588;SDS011;34369;51.174;6.738;2023-01-13T08:03:55;40.53;;;32.57;;
48588;SDS011;34369;51.174;6.738;2023-01-13T08:06:29;33.10;;;30.77;;
48588;SDS011;34369;51.174;6.738;2023-01-13T08:09:04;33.70;;;31.23;;
48588;SDS011;34369;51.174;6.738;2023-01-13T08:11:40;32.53;;;30.23;;
48588;SDS011;34369;51.174;6.738;2023-01-13T08:14:35;33.73;;;31.23;;
48588;SDS011;34369;51.174;6.738;2023-01-13T08:17:09;33.30;;;30.90;;
48588;SDS011;34369;51.174;6.738;2023-01-13T08:19:46;33.17;;;30.80;;
48588;SDS011;34369;51.174;6.738;2023-01-13T08:22:22;34.20;;;31.73;;
48588;SDS011;34369;51.174;6.738;2023-01-13T08:24:56;33.47;;;30.97;;
48588;SDS011;34369;51.174;6.738;2023-01-13T08:27:29;33.60;;;31.10;;
48588;SDS011;34369;51.174;6.738;2023-01-13T08:30:03;33.87;;;31.17;;
48588;SDS011;34369;51.174;6.738;2023-01-13T08:32:42;32.73;;;30.23;;
48588;SDS011;34369;51.174;6.738;2023-01-13T08:35:18;34.78;;;31.98;;
48588;SDS011;34369;51.174;6.738;2023-01-13T08:37:51;33.97;;;31.13;;
48588;SDS011;34369;51.174;6.738;2023-01-13T08:40:26;34.67;;;31.50;;
48588;SDS011;34369;51.174;6.738;2023-01-13T08:43:01;33.10;;;30.47;;
48588;SDS011;34369;51.174;6.738;2023-01-13T08:45:37;33.53;;;30.77;;
48588;SDS011;34369;51.174;6.738;2023-01-13T08:48:11;33.23;;;30.40;;
48588;SDS011;34369;51.174;6.738;2023-01-13T08:50:49;35.57;;;32.67;;
48588;SDS011;34369;51.174;6.738;2023-01-13T08:53:22;34.63;;;31.57;;
48588;SDS011;34369;51.174;6.738;2023-01-13T08:55:55;33.63;;;30.73;;
48588;SDS011;34369;51.174;6.738;2023-01-13T08:58:30;34.33;;;31.23;;
48588;SDS011;34369;51.174;6.738;2023-01-13T09:01:06;34.60;;;31.90;;
48588;SDS011;34369;51.174;6.738;2023-01-13T09:03:44;33.90;;;31.00;;
48588;SDS011;34369;51.174;6.738;2023-01-13T09:06:19;34.97;;;32.00;;
48588;SDS011;34369;51.174;6.738;2023-01-13T09:08:52;36.20;;;33.20;;
48588;SDS011;34369;51.174;6.738;2023-01-13T09:11:29;33.20;;;30.23;;
48588;SDS011;34369;51.174;6.738;2023-01-13T09:14:24;34.13;;;31.10;;
48588;SDS011;34369;51.174;6.738;2023-01-13T09:17:01;34.90;;;31.87;;
48588;SDS011;34369;51.174;6.738;2023-01-13T09:19:39;35.23;;;32.23;;
48588;SDS011;34369;51.174;6.738;2023-01-13T09:22:17;34.57;;;31.53;;
48588;SDS011;34369;51.174;6.738;2023-01-13T09:24:56;33.43;;;30.33;;
48588;SDS011;34369;51.174;6.738;2023-01-13T09:27:31;34.58;;;31.60;;
48588;SDS011;34369;51.174;6.738;2023-01-13T09:30:06;34.67;;;31.10;;
48588;SDS011;34369;51.174;6.738;2023-01-13T09:32:43;33.03;;;30.23;;
48588;SDS011;34369;51.174;6.738;2023-01-13T09:35:17;33.53;;;30.50;;
48588;SDS011;34369;51.174;6.738;2023-01-13T09:37:52;34.90;;;31.80;;
48588;SDS011;34369;51.174;6.738;2023-01-13T09:40:28;35.73;;;32.63;;
48588;SDS011;34369;51.174;6.738;2023-01-13T09:43:05;35.60;;;32.23;;
48588;SDS011;34369;51.174;6.738;2023-01-13T09:46:10;33.67;;;30.57;;
48588;SDS011;34369;51.174;6.738;2023-01-13T09:49:08;34.97;;;31.63;;
48588;SDS011;34369;51.174;6.738;2023-01-13T09:51:56;34.37;;;31.33;;
48588;SDS011;34369;51.174;6.738;2023-01-13T09:54:39;33.83;;;31.13;;
48588;SDS011;34369;51.174;6.738;2023-01-13T09:57:19;34.60;;;31.60;;
48588;SDS011;34369;51.174;6.738;2023-01-13T09:59:55;34.03;;;31.03;;
48588;SDS011;34369;51.174;6.738;2023-01-13T10:02:36;33.93;;;31.03;;
48588;SDS011;34369;51.174;6.738;2023-01-13T10:05:56;33.87;;;31.03;;
48588;SDS011;34369;51.174;6.738;2023-01-13T10:08:41;34.07;;;30.87;;
48588;SDS011;34369;51.174;6.738;2023-01-13T10:11:21;34.70;;;31.43;;
48588;SDS011;34369;51.174;6.738;2023-01-13T10:14:14;33.40;;;30.27;;
48588;SDS011;34369;51.174;6.738;2023-01-13T10:16:56;34.90;;;31.67;;
48588;SDS011;34369;51.174;6.738;2023-01-13T10:19:37;33.57;;;30.27;;
48588;SDS011;34369;51.174;6.738;2023-01-13T10:22:29;34.43;;;31.33;;
48588;SDS011;34369;51.174;6.738;2023-01-13T10:25:23;33.70;;;30.53;;
48588;SDS011;34369;51.174;6.738;2023-01-13T10:28:09;34.47;;;31.23;;
48588;SDS011;34369;51.174;6.738;2023-01-13T10:30:48;33.47;;;30.27;;
48588;SDS011;34369;51.174;6.738;2023-01-13T10:33:24;34.80;;;31.38;;
48588;SDS011;34369;51.174;6.738;2023-01-13T10:36:00;34.42;;;31.20;;
48588;SDS011;34369;51.174;6.738;2023-01-13T10:38:48;35.43;;;32.30;;
48588;SDS011;34369;51.174;6.738;2023-01-13T10:41:23;33.78;;;30.80;;
48588;SDS011;34369;51.174;6.738;2023-01-13T10:46:48;34.90;;;31.95;;
48588;SDS011;34369;51.174;6.738;2023-01-13T10:49:28;33.70;;;30.83;;
48588;SDS011;34369;51.174;6.738;2023-01-13T10:55:11;33.00;;;30.00;;
48588;SDS011;34369;51.174;6.738;2023-01-13T10:58:15;34.17;;;30.93;;
48588;SDS011;34369;51.174;6.738;2023-01-13T11:01:00;33.07;;;30.17;;
48588;SDS011;34369;51.174;6.738;2023-01-13T11:03:39;34.40;;;31.27;;
48588;SDS011;34369;51.174;6.738;2023-01-13T11:06:19;33.33;;;30.20;;
48588;SDS011;34369;51.174;6.738;2023-01-13T11:08:56;32.77;;;29.73;;
48588;SDS011;34369;51.174;6.738;2023-01-13T11:11:36;33.63;;;30.83;;
48588;SDS011;34369;51.174;6.738;2023-01-13T11:14:15;33.37;;;30.60;;
48588;SDS011;34369;51.174;6.738;2023-01-13T11:20:46;33.78;;;30.48;;
48588;SDS011;34369;51.174;6.738;2023-01-13T11:23:27;34.20;;;31.20;;
48588;SDS011;34369;51.174;6.738;2023-01-13T11:26:08;32.93;;;30.20;;
48588;SDS011;34369;51.174;6.738;2023-01-13T11:28:52;33.97;;;30.83;;
48588;SDS011;34369;51.174;6.738;2023-01-13T11:31:37;35.17;;;31.65;;
48588;SDS011;34369;51.174;6.738;2023-01-13T11:34:36;33.30;;;30.27;;
48588;SDS011;34369;51.174;6.738;2023-01-13T11:37:16;34.07;;;31.10;;
48588;SDS011;34369;51.174;6.738;2023-01-13T11:39:58;32.40;;;29.47;;
48588;SDS011;34369;51.174;6.738;2023-01-13T11:42:35;34.93;;;31.70;;
48588;SDS011;34369;51.174;6.738;2023-01-13T11:45:20;34.07;;;31.17;;
48588;SDS011;34369;51.174;6.738;2023-01-13T11:48:03;34.33;;;30.73;;
48588;SDS011;34369;51.174;6.738;2023-01-13T11:50:50;33.20;;;30.00;;
48588;SDS011;34369;51.174;6.738;2023-01-13T11:53:41;34.40;;;31.50;;
48588;SDS011;34369;51.174;6.738;2023-01-13T11:56:39;33.87;;;30.80;;
48588;SDS011;34369;51.174;6.738;2023-01-13T11:59:44;33.40;;;30.47;;
48588;SDS011;34369;51.174;6.738;2023-01-13T12:02:53;33.73;;;30.60;;
48588;SDS011;34369;51.174;6.738;2023-01-13T12:05:41;33.83;;;30.83;;
48588;SDS011;34369;51.174;6.738;2023-01-13T12:08:35;33.53;;;30.40;;
48588;SDS011;34369;51.174;6.738;2023-01-13T12:11:41;33.97;;;31.00;;
48588;SDS011;34369;51.174;6.738;2023-01-13T12:14:52;33.40;;;30.57;;
48588;SDS011;34369;51.174;6.738;2023-01-13T12:18:06;35.73;;;32.40;;
48588;SDS011;34369;51.174;6.738;2023-01-13T12:21:37;34.17;;;31.03;;
48588;SDS011;34369;51.174;6.738;2023-01-13T12:25:02;34.23;;;31.03;;
48588;SDS011;34369;51.174;6.738;2023-01-13T12:28:00;33.90;;;31.10;;
48588;SDS011;34369;51.174;6.738;2023-01-13T12:33:26;33.42;;;30.35;;
48588;SDS011;34369;51.174;6.738;2023-01-13T12:36:19;33.33;;;30.40;;
48588;SDS011;34369;51.174;6.738;2023-01-13T12:39:08;33.83;;;30.70;;
48588;SDS011;34369;51.174;6.738;2023-01-13T12:41:58;34.27;;;31.20;;
48588;SDS011;34369;51.174;6.738;2023-01-13T12:47:58;33.67;;;30.97;;
48588;SDS011;34369;51.174;6.738;2023-01-13T12:50:36;33.53;;;30.73;;
48588;SDS011;34369;51.174;6.738;2023-01-13T12:53:32;32.40;;;29.70;;
48588;SDS011;34369;51.174;6.738;2023-01-13T12:59:33;32.60;;;30.10;;
48588;SDS011;34369;51.174;6.738;2023-01-13T13:08:21;33.42;;;30.30;;
48588;SDS011;34369;51.174;6.738;2023-01-13T13:11:14;34.67;;;31.90;;
48588;SDS011;34369;51.174;6.738;2023-01-13T13:17:40;35.53;;;32.57;;
48588;SDS011;34369;51.174;6.738;2023-01-13T13:20:58;33.20;;;30.00;;
48588;SDS011;34369;51.174;6.738;2023-01-13T13:23:43;33.97;;;30.88;;
48588;SDS011;34369;51.174;6.738;2023-01-13T13:26:36;35.40;;;32.20;;
48588;SDS011;34369;51.174;6.738;2023-01-13T13:32:26;34.30;;;31.50;;
48588;SDS011;34369;51.174;6.738;2023-01-13T13:35:32;33.70;;;30.93;;
48588;SDS011;34369;51.174;6.738;2023-01-13T13:38:30;35.80;;;32.45;;
48588;SDS011;34369;51.174;6.738;2023-01-13T13:41:40;34.87;;;32.07;;
48588;SDS011;34369;51.174;6.738;2023-01-13T13:44:34;34.07;;;31.27;;
48588;SDS011;34369;51.174;6.738;2023-01-13T13:47:40;33.70;;;31.10;;
48588;SDS011;34369;51.174;6.738;2023-01-13T13:50:14;34.73;;;31.93;;
48588;SDS011;34369;51.174;6.738;2023-01-13T13:52:54;35.60;;;32.60;;
48588;SDS011;34369;51.174;6.738;2023-01-13T13:55:35;34.97;;;32.10;;
48588;SDS011;34369;51.174;6.738;2023-01-13T13:58:18;32.90;;;29.87;;
48588;SDS011;34369;51.174;6.738;2023-01-13T14:00:55;35.53;;;32.53;;
48588;SDS011;34369;51.174;6.738;2023-01-13T14:03:31;34.80;;;31.30;;
48588;SDS011;34369;51.174;6.738;2023-01-13T14:06:17;33.47;;;30.77;;
48588;SDS011;34369;51.174;6.738;2023-01-13T14:12:25;34.07;;;30.90;;
48588;SDS011;34369;51.174;6.738;2023-01-13T14:15:22;34.37;;;31.40;;
48588;SDS011;34369;51.174;6.738;2023-01-13T14:18:02;35.07;;;32.13;;
48588;SDS011;34369;51.174;6.738;2023-01-13T14:20:47;34.80;;;32.13;;
48588;SDS011;34369;51.174;6.738;2023-01-13T14:23:27;35.53;;;32.57;;
48588;SDS011;34369;51.174;6.738;2023-01-13T14:26:05;35.05;;;32.08;;
48588;SDS011;34369;51.174;6.738;2023-01-13T14:28:42;34.83;;;31.47;;
48588;SDS011;34369;51.174;6.738;2023-01-13T14:32:02;34.43;;;31.53;;
48588;SDS011;34369;51.174;6.738;2023-01-13T14:34:37;35.23;;;32.33;;
48588;SDS011;34369;51.174;6.738;2023-01-13T14:43:18;37.77;;;34.37;;
48588;SDS011;34369;51.174;6.738;2023-01-13T14:46:01;34.83;;;31.73;;
48588;SDS011;34369;51.174;6.738;2023-01-13T14:48:37;37.17;;;33.92;;
48588;SDS011;34369;51.174;6.738;2023-01-13T14:51:21;34.63;;;31.43;;
48588;SDS011;34369;51.174;6.738;2023-01-13T14:54:04;33.67;;;30.67;;
48588;SDS011;34369;51.174;6.738;2023-01-13T14:57:37;35.60;;;32.20;;
48588;SDS011;34369;51.174;6.738;2023-01-13T15:00:40;35.50;;;32.20;;
48588;SDS011;34369;51.174;6.738;2023-01-13T15:03:15;34.33;;;31.43;;
48588;SDS011;34369;51.174;6.738;2023-01-13T15:05:51;34.53;;;31.50;;
48588;SDS011;34369;51.174;6.738;2023-01-13T15:08:28;36.03;;;32.65;;
48588;SDS011;34369;51.174;6.738;2023-01-13T15:11:17;34.53;;;31.60;;
48588;SDS011;34369;51.174;6.738;2023-01-13T15:13:56;35.65;;;32.50;;
48588;SDS011;34369;51.174;6.738;2023-01-13T15:16:35;34.13;;;31.03;;
48588;SDS011;34369;51.174;6.738;2023-01-13T15:19:10;35.43;;;32.33;;
48588;SDS011;34369;51.174;6.738;2023-01-13T15:21:47;33.17;;;30.47;;
48588;SDS011;34369;51.174;6.738;2023-01-13T15:24:24;36.23;;;33.27;;
48588;SDS011;34369;51.174;6.738;2023-01-13T15:27:09;34.95;;;32.03;;
48588;SDS011;34369;51.174;6.738;2023-01-13T15:29:51;34.83;;;31.87;;
48588;SDS011;34369;51.174;6.738;2023-01-13T15:32:25;34.77;;;31.87;;
48588;SDS011;34369;51.174;6.738;2023-01-13T15:35:16;33.33;;;30.30;;
48588;SDS011;34369;51.174;6.738;2023-01-13T15:38:00;35.35;;;32.42;;
48588;SDS011;34369;51.174;6.738;2023-01-13T15:40:52;34.83;;;32.07;;
48588;SDS011;34369;51.174;6.738;2023-01-13T15:43:34;37.33;;;34.13;;
48588;SDS011;34369;51.174;6.738;2023-01-13T15:46:24;36.20;;;32.70;;
48588;SDS011;34369;51.174;6.738;2023-01-13T15:49:15;35.43;;;32.13;;
48588;SDS011;34369;51.174;6.738;2023-01-13T15:52:04;35.23;;;32.47;;
48588;SDS011;34369;51.174;6.738;2023-01-13T15:54:51;35.40;;;31.98;;
48588;SDS011;34369;51.174;6.738;2023-01-13T15:57:27;35.58;;;32.45;;
48588;SDS011;34369;51.174;6.738;2023-01-13T16:00:10;35.20;;;32.07;;
48588;SDS011;34369;51.174;6.738;2023-01-13T16:02:52;36.13;;;32.83;;
48588;SDS011;34369;51.174;6.738;2023-01-13T16:05:32;34.57;;;31.57;;
48588;SDS011;34369;51.174;6.738;2023-01-13T16:08:04;34.57;;;31.70;;
48588;SDS011;34369;51.174;6.738;2023-01-13T16:10:46;34.40;;;31.40;;
48588;SDS011;34369;51.174;6.738;2023-01-13T16:13:20;35.77;;;32.17;;
48588;SDS011;34369;51.174;6.738;2023-01-13T16:18:35;34.97;;;31.83;;
48588;SDS011;34369;51.174;6.738;2023-01-13T16:21:08;34.73;;;32.07;;
48588;SDS011;34369;51.174;6.738;2023-01-13T16:23:42;34.70;;;31.77;;
48588;SDS011;34369;51.174;6.738;2023-01-13T16:26:16;36.27;;;33.13;;
48588;SDS011;34369;51.174;6.738;2023-01-13T16:28:52;34.70;;;31.58;;
48588;SDS011;34369;51.174;6.738;2023-01-13T16:31:28;35.77;;;32.70;;
48588;SDS011;34369;51.174;6.738;2023-01-13T16:36:37;33.57;;;30.97;;
48588;SDS011;34369;51.174;6.738;2023-01-13T16:39:18;34.73;;;32.00;;
48588;SDS011;34369;51.174;6.738;2023-01-13T16:41:57;34.37;;;31.60;;